sensor_id;sensor_type;location;lat;lon;timestamp;pressure;altitude;pressure_sealevel;temperature;humidity
50065;BME280;64524;47.848;-122.338;2023-04-08T00:00:15;100744.98;;;12.60;100.00
50065;BME280;64524;47.848;-122.338;2023-04-08T00:02:44;100747.06;;;12.58;100.00
50065;BME280;64524;47.848;-122.338;2023-04-08T00:05:26;100748.79;;;12.57;100.00
50065;BME280;64524;47.848;-122.338;2023-04-08T00:07:55;100757.29;;;12.54;100.00
50065;BME280;64524;47.848;-122.338;2023-04-08T00:10:26;100756.60;;;12.52;100.00
50065;BME280;64524;47.848;-122.338;2023-04-08T00:12:55;100763.35;;;12.47;100.00
50065;BME280;64524;47.848;-122.338;2023-04-08T00:15:26;100763.85;;;12.42;100.00
50065;BME280;64524;47.848;-122.338;2023-04-08T00:17:56;100768.35;;;12.38;100.00
50065;BME280;64524;47.848;-122.338;2023-04-08T00:20:34;100763.09;;;12.32;100.00
50065;BME280;64524;47.848;-122.338;2023-04-08T00:23:03;100765.14;;;12.25;100.00
50065;BME280;64524;47.848;-122.338;2023-04-08T00:25:32;100771.89;;;12.21;100.00
50065;BME280;64524;47.848;-122.338;2023-04-08T00:28:01;100770.14;;;12.17;100.00
50065;BME280;64524;47.848;-122.338;2023-04-08T00:30:29;100775.66;;;12.14;100.00
50065;BME280;64524;47.848;-122.338;2023-04-08T00:33:04;100780.70;;;12.13;100.00
50065;BME280;64524;47.848;-122.338;2023-04-08T00:35:33;100782.27;;;12.13;100.00
50065;BME280;64524;47.848;-122.338;2023-04-08T00:38:02;100785.75;;;12.14;100.00
50065;BME280;64524;47.848;-122.338;2023-04-08T00:40:35;100783.66;;;12.14;100.00
50065;BME280;64524;47.848;-122.338;2023-04-08T00:43:04;100782.80;;;12.15;100.00
50065;BME280;64524;47.848;-122.338;2023-04-08T00:45:35;100784.54;;;12.15;100.00
50065;BME280;64524;47.848;-122.338;2023-04-08T00:48:04;100793.05;;;12.16;100.00
50065;BME280;64524;47.848;-122.338;2023-04-08T00:50:33;100797.93;;;12.19;100.00
50065;BME280;64524;47.848;-122.338;2023-04-08T00:53:05;100795.48;;;12.18;100.00
50065;BME280;64524;47.848;-122.338;2023-04-08T00:55:38;100804.19;;;12.19;100.00
50065;BME280;64524;47.848;-122.338;2023-04-08T00:58:13;100808.70;;;12.20;100.00
50065;BME280;64524;47.848;-122.338;2023-04-08T01:01:25;100812.00;;;12.22;100.00
50065;BME280;64524;47.848;-122.338;2023-04-08T01:07:48;100827.16;;;12.28;100.00
50065;BME280;64524;47.848;-122.338;2023-04-08T01:10:25;100831.64;;;12.24;100.00
50065;BME280;64524;47.848;-122.338;2023-04-08T01:13:05;100835.27;;;12.19;100.00
50065;BME280;64524;47.848;-122.338;2023-04-08T01:15:37;100835.24;;;12.16;100.00
50065;BME280;64524;47.848;-122.338;2023-04-08T01:18:15;100842.88;;;12.15;100.00
50065;BME280;64524;47.848;-122.338;2023-04-08T01:20:49;100848.56;;;12.09;100.00
50065;BME280;64524;47.848;-122.338;2023-04-08T01:23:59;100853.21;;;12.04;100.00
50065;BME280;64524;47.848;-122.338;2023-04-08T01:26:52;100861.17;;;12.02;100.00
50065;BME280;64524;47.848;-122.338;2023-04-08T01:29:45;100866.55;;;12.02;100.00
50065;BME280;64524;47.848;-122.338;2023-04-08T01:32:16;100869.48;;;12.00;100.00
50065;BME280;64524;47.848;-122.338;2023-04-08T01:34:48;100872.95;;;11.98;100.00
50065;BME280;64524;47.848;-122.338;2023-04-08T01:37:21;100874.14;;;11.95;100.00
50065;BME280;64524;47.848;-122.338;2023-04-08T01:39:51;100872.55;;;11.93;100.00
50065;BME280;64524;47.848;-122.338;2023-04-08T01:45:04;100877.17;;;11.88;100.00
50065;BME280;64524;47.848;-122.338;2023-04-08T01:47:34;100872.98;;;11.85;100.00
50065;BME280;64524;47.848;-122.338;2023-04-08T01:50:04;100872.79;;;11.83;100.00
50065;BME280;64524;47.848;-122.338;2023-04-08T01:52:37;100876.75;;;11.81;100.00
50065;BME280;64524;47.848;-122.338;2023-04-08T01:55:07;100872.20;;;11.77;100.00
50065;BME280;64524;47.848;-122.338;2023-04-08T01:57:37;100874.60;;;11.73;100.00
50065;BME280;64524;47.848;-122.338;2023-04-08T02:00:28;100877.66;;;11.67;100.00
50065;BME280;64524;47.848;-122.338;2023-04-08T02:02:58;100879.16;;;11.61;100.00
50065;BME280;64524;47.848;-122.338;2023-04-08T02:05:48;100877.20;;;11.55;100.00
50065;BME280;64524;47.848;-122.338;2023-04-08T02:08:23;100877.14;;;11.49;100.00
50065;BME280;64524;47.848;-122.338;2023-04-08T02:10:54;100882.30;;;11.45;100.00
50065;BME280;64524;47.848;-122.338;2023-04-08T02:16:38;100888.92;;;11.33;100.00
50065;BME280;64524;47.848;-122.338;2023-04-08T02:19:13;100889.23;;;11.29;100.00
50065;BME280;64524;47.848;-122.338;2023-04-08T02:21:48;100890.07;;;11.27;100.00
50065;BME280;64524;47.848;-122.338;2023-04-08T02:24:39;100894.02;;;11.23;100.00
50065;BME280;64524;47.848;-122.338;2023-04-08T02:27:09;100895.35;;;11.19;100.00
50065;BME280;64524;47.848;-122.338;2023-04-08T02:29:41;100905.19;;;11.17;100.00
50065;BME280;64524;47.848;-122.338;2023-04-08T02:32:16;100908.80;;;11.15;100.00
50065;BME280;64524;47.848;-122.338;2023-04-08T02:34:52;100919.34;;;11.10;100.00
50065;BME280;64524;47.848;-122.338;2023-04-08T02:40:32;100932.80;;;11.06;100.00
50065;BME280;64524;47.848;-122.338;2023-04-08T02:43:03;100930.67;;;11.02;100.00
50065;BME280;64524;47.848;-122.338;2023-04-08T02:45:51;100935.49;;;10.99;100.00
50065;BME280;64524;47.848;-122.338;2023-04-08T02:48:20;100934.77;;;10.97;100.00
50065;BME280;64524;47.848;-122.338;2023-04-08T02:50:52;100930.56;;;10.93;100.00
50065;BME280;64524;47.848;-122.338;2023-04-08T03:02:46;100954.30;;;10.82;100.00
50065;BME280;64524;47.848;-122.338;2023-04-08T03:11:00;100972.05;;;10.74;100.00
50065;BME280;64524;47.848;-122.338;2023-04-08T03:14:03;100974.30;;;10.74;100.00
50065;BME280;64524;47.848;-122.338;2023-04-08T03:16:32;100982.09;;;10.73;100.00
50065;BME280;64524;47.848;-122.338;2023-04-08T03:19:12;100980.16;;;10.73;100.00
50065;BME280;64524;47.848;-122.338;2023-04-08T03:21:47;100982.05;;;10.72;100.00
50065;BME280;64524;47.848;-122.338;2023-04-08T03:24:36;100990.35;;;10.70;100.00
50065;BME280;64524;47.848;-122.338;2023-04-08T03:27:27;101005.04;;;10.68;100.00
50065;BME280;64524;47.848;-122.338;2023-04-08T03:29:54;101011.20;;;10.64;100.00
50065;BME280;64524;47.848;-122.338;2023-04-08T03:32:28;101012.86;;;10.60;100.00
50065;BME280;64524;47.848;-122.338;2023-04-08T03:34:57;101012.80;;;10.55;100.00
50065;BME280;64524;47.848;-122.338;2023-04-08T03:37:37;101012.56;;;10.51;100.00
50065;BME280;64524;47.848;-122.338;2023-04-08T03:40:06;101013.00;;;10.46;100.00
50065;BME280;64524;47.848;-122.338;2023-04-08T03:42:35;101014.02;;;10.45;100.00
50065;BME280;64524;47.848;-122.338;2023-04-08T03:45:04;101015.89;;;10.44;100.00
50065;BME280;64524;47.848;-122.338;2023-04-08T03:50:42;101028.36;;;10.43;100.00
50065;BME280;64524;47.848;-122.338;2023-04-08T03:53:15;101035.91;;;10.40;100.00
50065;BME280;64524;47.848;-122.338;2023-04-08T03:55:49;101039.66;;;10.36;100.00
50065;BME280;64524;47.848;-122.338;2023-04-08T04:01:34;101050.33;;;10.32;100.00
50065;BME280;64524;47.848;-122.338;2023-04-08T04:04:11;101048.18;;;10.30;100.00
50065;BME280;64524;47.848;-122.338;2023-04-08T04:06:45;101054.52;;;10.27;100.00
50065;BME280;64524;47.848;-122.338;2023-04-08T04:10:05;101055.83;;;10.23;100.00
50065;BME280;64524;47.848;-122.338;2023-04-08T04:19:07;101048.39;;;10.13;100.00
50065;BME280;64524;47.848;-122.338;2023-04-08T04:27:53;101057.77;;;10.06;100.00
50065;BME280;64524;47.848;-122.338;2023-04-08T04:33:56;101069.17;;;10.06;100.00
50065;BME280;64524;47.848;-122.338;2023-04-08T04:36:48;101073.00;;;10.07;100.00
50065;BME280;64524;47.848;-122.338;2023-04-08T04:39:17;101077.11;;;10.04;100.00
50065;BME280;64524;47.848;-122.338;2023-04-08T04:42:07;101073.92;;;10.01;100.00
50065;BME280;64524;47.848;-122.338;2023-04-08T04:47:43;101069.20;;;9.97;100.00
50065;BME280;64524;47.848;-122.338;2023-04-08T04:50:12;101070.39;;;9.97;100.00
50065;BME280;64524;47.848;-122.338;2023-04-08T04:52:41;101069.47;;;9.94;100.00
50065;BME280;64524;47.848;-122.338;2023-04-08T04:55:12;101068.20;;;9.91;100.00
50065;BME280;64524;47.848;-122.338;2023-04-08T04:57:42;101075.23;;;9.88;100.00
50065;BME280;64524;47.848;-122.338;2023-04-08T05:00:11;101080.83;;;9.91;100.00
50065;BME280;64524;47.848;-122.338;2023-04-08T05:02:46;101078.63;;;9.92;100.00
50065;BME280;64524;47.848;-122.338;2023-04-08T05:05:36;101073.60;;;9.93;100.00
50065;BME280;64524;47.848;-122.338;2023-04-08T05:08:11;101076.42;;;9.95;100.00
50065;BME280;64524;47.848;-122.338;2023-04-08T05:10:52;101079.05;;;9.96;100.00
50065;BME280;64524;47.848;-122.338;2023-04-08T05:19:47;101073.50;;;9.88;100.00
50065;BME280;64524;47.848;-122.338;2023-04-08T05:22:36;101075.04;;;9.87;100.00
50065;BME280;64524;47.848;-122.338;2023-04-08T05:25:34;101074.11;;;9.84;100.00
50065;BME280;64524;47.848;-122.338;2023-04-08T05:35:57;101074.13;;;9.76;100.00
50065;BME280;64524;47.848;-122.338;2023-04-08T05:38:39;101071.45;;;9.72;100.00
50065;BME280;64524;47.848;-122.338;2023-04-08T05:41:33;101066.67;;;9.67;100.00
50065;BME280;64524;47.848;-122.338;2023-04-08T05:54:04;101066.25;;;9.48;100.00
50065;BME280;64524;47.848;-122.338;2023-04-08T05:56:34;101060.66;;;9.45;100.00
50065;BME280;64524;47.848;-122.338;2023-04-08T05:59:03;101066.16;;;9.43;100.00
50065;BME280;64524;47.848;-122.338;2023-04-08T06:01:31;101067.33;;;9.40;100.00
50065;BME280;64524;47.848;-122.338;2023-04-08T06:04:04;101066.74;;;9.38;100.00
50065;BME280;64524;47.848;-122.338;2023-04-08T06:06:33;101067.23;;;9.37;100.00
50065;BME280;64524;47.848;-122.338;2023-04-08T06:09:08;101073.78;;;9.36;100.00
50065;BME280;64524;47.848;-122.338;2023-04-08T06:11:40;101071.67;;;9.35;100.00
50065;BME280;64524;47.848;-122.338;2023-04-08T06:14:19;101073.02;;;9.33;100.00
50065;BME280;64524;47.848;-122.338;2023-04-08T06:16:58;101076.08;;;9.31;100.00
50065;BME280;64524;47.848;-122.338;2023-04-08T06:19:30;101078.33;;;9.30;100.00
50065;BME280;64524;47.848;-122.338;2023-04-08T06:21:59;101073.63;;;9.29;100.00
50065;BME280;64524;47.848;-122.338;2023-04-08T06:24:28;101077.91;;;9.27;100.00
50065;BME280;64524;47.848;-122.338;2023-04-08T06:27:12;101078.73;;;9.25;100.00
50065;BME280;64524;47.848;-122.338;2023-04-08T06:30:01;101081.12;;;9.24;100.00
50065;BME280;64524;47.848;-122.338;2023-04-08T06:32:42;101078.98;;;9.21;100.00
50065;BME280;64524;47.848;-122.338;2023-04-08T06:35:17;101080.35;;;9.20;100.00
50065;BME280;64524;47.848;-122.338;2023-04-08T06:38:20;101077.25;;;9.20;100.00
50065;BME280;64524;47.848;-122.338;2023-04-08T06:41:02;101076.17;;;9.19;100.00
50065;BME280;64524;47.848;-122.338;2023-04-08T06:43:41;101086.03;;;9.19;100.00
50065;BME280;64524;47.848;-122.338;2023-04-08T06:46:10;101084.10;;;9.18;100.00
50065;BME280;64524;47.848;-122.338;2023-04-08T06:48:39;101080.11;;;9.17;100.00
50065;BME280;64524;47.848;-122.338;2023-04-08T06:51:27;101077.66;;;9.16;100.00
50065;BME280;64524;47.848;-122.338;2023-04-08T06:53:56;101083.19;;;9.16;100.00
50065;BME280;64524;47.848;-122.338;2023-04-08T06:56:25;101087.77;;;9.12;100.00
50065;BME280;64524;47.848;-122.338;2023-04-08T06:58:53;101093.91;;;9.09;100.00
50065;BME280;64524;47.848;-122.338;2023-04-08T07:01:22;101092.25;;;9.05;100.00
50065;BME280;64524;47.848;-122.338;2023-04-08T07:08:23;101092.08;;;9.04;100.00
50065;BME280;64524;47.848;-122.338;2023-04-08T07:10:52;101094.80;;;9.03;100.00
50065;BME280;64524;47.848;-122.338;2023-04-08T07:13:23;101092.87;;;9.02;100.00
50065;BME280;64524;47.848;-122.338;2023-04-08T07:15:54;101092.34;;;9.01;100.00
50065;BME280;64524;47.848;-122.338;2023-04-08T07:18:23;101093.19;;;9.00;100.00
50065;BME280;64524;47.848;-122.338;2023-04-08T07:20:53;101095.45;;;9.01;100.00
50065;BME280;64524;47.848;-122.338;2023-04-08T07:23:22;101095.15;;;9.03;100.00
50065;BME280;64524;47.848;-122.338;2023-04-08T07:25:54;101095.39;;;9.06;100.00
50065;BME280;64524;47.848;-122.338;2023-04-08T07:28:23;101097.04;;;9.10;100.00
50065;BME280;64524;47.848;-122.338;2023-04-08T07:30:54;101095.04;;;9.13;100.00
50065;BME280;64524;47.848;-122.338;2023-04-08T07:33:24;101089.91;;;9.15;100.00
50065;BME280;64524;47.848;-122.338;2023-04-08T07:35:54;101088.17;;;9.16;100.00
50065;BME280;64524;47.848;-122.338;2023-04-08T07:38:27;101094.04;;;9.15;100.00
50065;BME280;64524;47.848;-122.338;2023-04-08T07:41:00;101091.61;;;9.14;100.00
50065;BME280;64524;47.848;-122.338;2023-04-08T07:43:49;101089.02;;;9.14;100.00
50065;BME280;64524;47.848;-122.338;2023-04-08T07:46:18;101092.30;;;9.14;100.00
50065;BME280;64524;47.848;-122.338;2023-04-08T07:48:49;101089.38;;;9.15;100.00
50065;BME280;64524;47.848;-122.338;2023-04-08T07:51:19;101093.72;;;9.15;100.00
50065;BME280;64524;47.848;-122.338;2023-04-08T07:53:49;101090.27;;;9.16;100.00
50065;BME280;64524;47.848;-122.338;2023-04-08T07:56:18;101096.35;;;9.17;100.00
50065;BME280;64524;47.848;-122.338;2023-04-08T07:58:50;101096.18;;;9.18;100.00
50065;BME280;64524;47.848;-122.338;2023-04-08T08:01:21;101093.64;;;9.20;100.00
50065;BME280;64524;47.848;-122.338;2023-04-08T08:03:51;101091.96;;;9.22;100.00
50065;BME280;64524;47.848;-122.338;2023-04-08T08:06:33;101090.98;;;9.24;100.00
50065;BME280;64524;47.848;-122.338;2023-04-08T08:09:02;101092.93;;;9.27;100.00
50065;BME280;64524;47.848;-122.338;2023-04-08T08:11:35;101091.25;;;9.29;100.00
50065;BME280;64524;47.848;-122.338;2023-04-08T08:14:04;101091.98;;;9.30;100.00
50065;BME280;64524;47.848;-122.338;2023-04-08T08:16:33;101094.92;;;9.31;100.00
50065;BME280;64524;47.848;-122.338;2023-04-08T08:19:03;101095.98;;;9.31;100.00
50065;BME280;64524;47.848;-122.338;2023-04-08T08:21:38;101101.54;;;9.32;100.00
50065;BME280;64524;47.848;-122.338;2023-04-08T08:24:07;101113.81;;;9.32;100.00
50065;BME280;64524;47.848;-122.338;2023-04-08T08:26:36;101114.31;;;9.32;100.00
50065;BME280;64524;47.848;-122.338;2023-04-08T08:29:09;101119.48;;;9.32;100.00
50065;BME280;64524;47.848;-122.338;2023-04-08T08:31:38;101127.09;;;9.31;100.00
50065;BME280;64524;47.848;-122.338;2023-04-08T08:34:07;101136.98;;;9.32;100.00
50065;BME280;64524;47.848;-122.338;2023-04-08T08:36:42;101141.30;;;9.33;100.00
50065;BME280;64524;47.848;-122.338;2023-04-08T08:39:11;101149.45;;;9.33;100.00
50065;BME280;64524;47.848;-122.338;2023-04-08T08:41:40;101154.83;;;9.34;100.00
50065;BME280;64524;47.848;-122.338;2023-04-08T08:44:13;101153.25;;;9.33;100.00
50065;BME280;64524;47.848;-122.338;2023-04-08T08:46:46;101148.52;;;9.31;100.00
50065;BME280;64524;47.848;-122.338;2023-04-08T08:49:19;101147.94;;;9.29;100.00
50065;BME280;64524;47.848;-122.338;2023-04-08T08:51:48;101146.52;;;9.27;100.00
50065;BME280;64524;47.848;-122.338;2023-04-08T08:54:18;101151.02;;;9.27;100.00
50065;BME280;64524;47.848;-122.338;2023-04-08T08:56:47;101153.83;;;9.29;100.00
50065;BME280;64524;47.848;-122.338;2023-04-08T08:59:18;101151.80;;;9.31;100.00
50065;BME280;64524;47.848;-122.338;2023-04-08T09:01:47;101149.44;;;9.33;100.00
50065;BME280;64524;47.848;-122.338;2023-04-08T09:04:18;101152.95;;;9.36;100.00
50065;BME280;64524;47.848;-122.338;2023-04-08T09:07:19;101150.41;;;9.38;100.00
50065;BME280;64524;47.848;-122.338;2023-04-08T09:09:54;101148.00;;;9.38;100.00
50065;BME280;64524;47.848;-122.338;2023-04-08T09:12:25;101144.74;;;9.39;100.00
50065;BME280;64524;47.848;-122.338;2023-04-08T09:15:05;101140.06;;;9.39;100.00
50065;BME280;64524;47.848;-122.338;2023-04-08T09:17:44;101135.02;;;9.37;100.00
50065;BME280;64524;47.848;-122.338;2023-04-08T09:20:14;101131.70;;;9.36;100.00
50065;BME280;64524;47.848;-122.338;2023-04-08T09:23:01;101134.25;;;9.34;100.00
50065;BME280;64524;47.848;-122.338;2023-04-08T09:25:32;101134.90;;;9.32;100.00
50065;BME280;64524;47.848;-122.338;2023-04-08T09:28:04;101138.85;;;9.31;100.00
50065;BME280;64524;47.848;-122.338;2023-04-08T09:34:16;101146.91;;;9.29;100.00
50065;BME280;64524;47.848;-122.338;2023-04-08T09:39:48;101140.39;;;9.23;100.00
50065;BME280;64524;47.848;-122.338;2023-04-08T09:45:43;101143.66;;;9.16;100.00
50065;BME280;64524;47.848;-122.338;2023-04-08T09:49:00;101146.86;;;9.12;100.00
50065;BME280;64524;47.848;-122.338;2023-04-08T09:51:30;101146.23;;;9.08;100.00
50065;BME280;64524;47.848;-122.338;2023-04-08T09:54:02;101144.47;;;9.06;100.00
50065;BME280;64524;47.848;-122.338;2023-04-08T09:56:47;101143.70;;;9.03;100.00
50065;BME280;64524;47.848;-122.338;2023-04-08T09:59:17;101143.84;;;9.01;100.00
50065;BME280;64524;47.848;-122.338;2023-04-08T10:01:52;101139.34;;;9.01;100.00
50065;BME280;64524;47.848;-122.338;2023-04-08T10:04:23;101130.13;;;8.99;100.00
50065;BME280;64524;47.848;-122.338;2023-04-08T10:06:59;101133.23;;;8.99;100.00
50065;BME280;64524;47.848;-122.338;2023-04-08T10:09:32;101135.08;;;8.97;100.00
50065;BME280;64524;47.848;-122.338;2023-04-08T10:12:03;101137.83;;;8.96;100.00
50065;BME280;64524;47.848;-122.338;2023-04-08T10:14:33;101133.69;;;8.96;100.00
50065;BME280;64524;47.848;-122.338;2023-04-08T10:17:23;101124.02;;;8.97;100.00
50065;BME280;64524;47.848;-122.338;2023-04-08T10:19:57;101129.05;;;8.97;100.00
50065;BME280;64524;47.848;-122.338;2023-04-08T10:30:44;101133.64;;;9.02;100.00
50065;BME280;64524;47.848;-122.338;2023-04-08T10:36:14;101132.26;;;9.01;100.00
50065;BME280;64524;47.848;-122.338;2023-04-08T10:38:48;101136.20;;;9.01;100.00
50065;BME280;64524;47.848;-122.338;2023-04-08T10:41:23;101134.68;;;9.01;100.00
50065;BME280;64524;47.848;-122.338;2023-04-08T10:43:55;101135.00;;;9.01;100.00
50065;BME280;64524;47.848;-122.338;2023-04-08T10:46:46;101137.20;;;8.98;100.00
50065;BME280;64524;47.848;-122.338;2023-04-08T10:49:16;101142.53;;;8.98;100.00
50065;BME280;64524;47.848;-122.338;2023-04-08T10:51:46;101139.42;;;8.98;100.00
50065;BME280;64524;47.848;-122.338;2023-04-08T10:54:16;101140.86;;;9.00;100.00
50065;BME280;64524;47.848;-122.338;2023-04-08T10:56:49;101141.09;;;9.02;100.00
50065;BME280;64524;47.848;-122.338;2023-04-08T10:59:49;101151.36;;;9.05;100.00
50065;BME280;64524;47.848;-122.338;2023-04-08T11:02:21;101150.14;;;9.04;100.00
50065;BME280;64524;47.848;-122.338;2023-04-08T11:04:53;101150.09;;;9.03;100.00
50065;BME280;64524;47.848;-122.338;2023-04-08T11:07:24;101149.27;;;9.04;100.00
50065;BME280;64524;47.848;-122.338;2023-04-08T11:09:55;101150.86;;;9.06;100.00
50065;BME280;64524;47.848;-122.338;2023-04-08T11:12:38;101153.13;;;9.07;100.00
50065;BME280;64524;47.848;-122.338;2023-04-08T11:15:08;101150.18;;;9.06;100.00
50065;BME280;64524;47.848;-122.338;2023-04-08T11:17:49;101150.54;;;9.07;100.00
50065;BME280;64524;47.848;-122.338;2023-04-08T11:20:18;101151.42;;;9.08;100.00
50065;BME280;64524;47.848;-122.338;2023-04-08T11:22:49;101149.00;;;9.08;100.00
50065;BME280;64524;47.848;-122.338;2023-04-08T11:25:22;101145.23;;;9.09;100.00
50065;BME280;64524;47.848;-122.338;2023-04-08T11:27:51;101138.30;;;9.09;100.00
50065;BME280;64524;47.848;-122.338;2023-04-08T11:30:27;101134.80;;;9.07;100.00
50065;BME280;64524;47.848;-122.338;2023-04-08T11:32:59;101137.91;;;9.07;100.00
50065;BME280;64524;47.848;-122.338;2023-04-08T11:35:33;101148.11;;;9.07;100.00
50065;BME280;64524;47.848;-122.338;2023-04-08T11:38:07;101152.08;;;9.06;100.00
50065;BME280;64524;47.848;-122.338;2023-04-08T11:44:28;101140.23;;;9.02;100.00
50065;BME280;64524;47.848;-122.338;2023-04-08T11:47:01;101134.15;;;9.01;100.00
50065;BME280;64524;47.848;-122.338;2023-04-08T11:49:48;101137.44;;;9.01;100.00
50065;BME280;64524;47.848;-122.338;2023-04-08T11:52:24;101136.08;;;9.02;100.00
50065;BME280;64524;47.848;-122.338;2023-04-08T11:58:03;101126.73;;;9.01;100.00
50065;BME280;64524;47.848;-122.338;2023-04-08T12:00:34;101120.29;;;8.99;100.00
50065;BME280;64524;47.848;-122.338;2023-04-08T12:03:05;101124.39;;;8.98;100.00
50065;BME280;64524;47.848;-122.338;2023-04-08T12:05:35;101116.73;;;8.95;100.00
50065;BME280;64524;47.848;-122.338;2023-04-08T12:08:04;101115.27;;;8.93;100.00
50065;BME280;64524;47.848;-122.338;2023-04-08T12:10:34;101125.30;;;8.93;100.00
50065;BME280;64524;47.848;-122.338;2023-04-08T12:13:03;101120.83;;;8.93;100.00
50065;BME280;64524;47.848;-122.338;2023-04-08T12:18:36;101124.82;;;8.94;100.00
50065;BME280;64524;47.848;-122.338;2023-04-08T12:21:05;101121.70;;;8.94;100.00
50065;BME280;64524;47.848;-122.338;2023-04-08T12:23:35;101119.25;;;8.93;100.00
50065;BME280;64524;47.848;-122.338;2023-04-08T12:26:04;101124.41;;;8.92;100.00
50065;BME280;64524;47.848;-122.338;2023-04-08T12:28:37;101127.48;;;8.90;100.00
50065;BME280;64524;47.848;-122.338;2023-04-08T12:31:06;101128.98;;;8.88;100.00
50065;BME280;64524;47.848;-122.338;2023-04-08T12:33:39;101131.00;;;8.86;100.00
50065;BME280;64524;47.848;-122.338;2023-04-08T12:36:11;101128.05;;;8.85;100.00
50065;BME280;64524;47.848;-122.338;2023-04-08T12:38:40;101119.91;;;8.84;100.00
50065;BME280;64524;47.848;-122.338;2023-04-08T12:41:13;101112.11;;;8.83;100.00
50065;BME280;64524;47.848;-122.338;2023-04-08T12:43:45;101119.17;;;8.82;100.00
50065;BME280;64524;47.848;-122.338;2023-04-08T12:46:14;101118.63;;;8.81;100.00
50065;BME280;64524;47.848;-122.338;2023-04-08T12:48:46;101109.13;;;8.81;100.00
50065;BME280;64524;47.848;-122.338;2023-04-08T12:51:30;101105.31;;;8.81;100.00
50065;BME280;64524;47.848;-122.338;2023-04-08T12:54:00;101105.51;;;8.82;100.00
50065;BME280;64524;47.848;-122.338;2023-04-08T12:56:31;101102.06;;;8.83;100.00
50065;BME280;64524;47.848;-122.338;2023-04-08T12:59:03;101103.79;;;8.82;100.00
50065;BME280;64524;47.848;-122.338;2023-04-08T13:01:39;101102.77;;;8.83;100.00
50065;BME280;64524;47.848;-122.338;2023-04-08T13:04:12;101093.22;;;8.81;100.00
50065;BME280;64524;47.848;-122.338;2023-04-08T13:06:42;101083.56;;;8.81;100.00
50065;BME280;64524;47.848;-122.338;2023-04-08T13:09:20;101087.01;;;8.81;100.00
50065;BME280;64524;47.848;-122.338;2023-04-08T13:11:55;101093.05;;;8.81;100.00
50065;BME280;64524;47.848;-122.338;2023-04-08T13:14:28;101095.83;;;8.81;100.00
50065;BME280;64524;47.848;-122.338;2023-04-08T13:16:57;101092.90;;;8.82;100.00
50065;BME280;64524;47.848;-122.338;2023-04-08T13:19:27;101103.98;;;8.83;100.00
50065;BME280;64524;47.848;-122.338;2023-04-08T13:21:56;101108.16;;;8.84;100.00
50065;BME280;64524;47.848;-122.338;2023-04-08T13:24:34;101108.20;;;8.86;100.00
50065;BME280;64524;47.848;-122.338;2023-04-08T13:27:06;101109.83;;;8.89;100.00
50065;BME280;64524;47.848;-122.338;2023-04-08T13:29:35;101115.41;;;8.91;100.00
50065;BME280;64524;47.848;-122.338;2023-04-08T13:32:05;101123.59;;;8.94;100.00
50065;BME280;64524;47.848;-122.338;2023-04-08T13:34:34;101117.45;;;8.96;100.00
50065;BME280;64524;47.848;-122.338;2023-04-08T13:37:44;101116.29;;;8.98;100.00
50065;BME280;64524;47.848;-122.338;2023-04-08T13:43:27;101115.02;;;9.03;100.00
50065;BME280;64524;47.848;-122.338;2023-04-08T13:48:41;101109.11;;;9.09;100.00
50065;BME280;64524;47.848;-122.338;2023-04-08T13:51:30;101113.67;;;9.12;100.00
50065;BME280;64524;47.848;-122.338;2023-04-08T13:54:03;101116.34;;;9.15;100.00
50065;BME280;64524;47.848;-122.338;2023-04-08T13:59:19;101119.71;;;9.19;100.00
50065;BME280;64524;47.848;-122.338;2023-04-08T14:01:48;101118.01;;;9.19;100.00
50065;BME280;64524;47.848;-122.338;2023-04-08T14:04:41;101116.13;;;9.20;100.00
50065;BME280;64524;47.848;-122.338;2023-04-08T14:07:18;101120.64;;;9.21;100.00
50065;BME280;64524;47.848;-122.338;2023-04-08T14:09:48;101118.73;;;9.21;100.00
50065;BME280;64524;47.848;-122.338;2023-04-08T14:12:41;101119.09;;;9.22;100.00
50065;BME280;64524;47.848;-122.338;2023-04-08T14:15:14;101118.78;;;9.23;100.00
50065;BME280;64524;47.848;-122.338;2023-04-08T14:17:47;101122.98;;;9.26;100.00
50065;BME280;64524;47.848;-122.338;2023-04-08T14:20:17;101123.02;;;9.27;100.00
50065;BME280;64524;47.848;-122.338;2023-04-08T14:22:49;101123.05;;;9.28;100.00
50065;BME280;64524;47.848;-122.338;2023-04-08T14:25:21;101124.29;;;9.30;100.00
50065;BME280;64524;47.848;-122.338;2023-04-08T14:27:50;101132.65;;;9.32;100.00
50065;BME280;64524;47.848;-122.338;2023-04-08T14:30:25;101133.35;;;9.33;100.00
50065;BME280;64524;47.848;-122.338;2023-04-08T14:32:54;101141.84;;;9.34;100.00
50065;BME280;64524;47.848;-122.338;2023-04-08T14:35:23;101151.54;;;9.34;100.00
50065;BME280;64524;47.848;-122.338;2023-04-08T14:37:52;101154.14;;;9.35;100.00
50065;BME280;64524;47.848;-122.338;2023-04-08T14:40:22;101155.38;;;9.35;100.00
50065;BME280;64524;47.848;-122.338;2023-04-08T14:42:51;101154.35;;;9.36;100.00
50065;BME280;64524;47.848;-122.338;2023-04-08T14:45:20;101158.38;;;9.38;100.00
50065;BME280;64524;47.848;-122.338;2023-04-08T14:47:52;101163.08;;;9.39;100.00
50065;BME280;64524;47.848;-122.338;2023-04-08T14:50:24;101163.95;;;9.39;100.00
50065;BME280;64524;47.848;-122.338;2023-04-08T14:52:53;101164.85;;;9.41;100.00
50065;BME280;64524;47.848;-122.338;2023-04-08T14:55:22;101172.82;;;9.43;100.00